sensor_id;sensor_type;location;lat;lon;timestamp;pressure;altitude;pressure_sealevel;temperature;humidity
38400;BME280;24180;42.676;23.320;2023-12-20T00:01:35;95323.38;;;-0.60;88.50
38400;BME280;24180;42.676;23.320;2023-12-20T00:04:01;95313.19;;;-0.65;88.21
38400;BME280;24180;42.676;23.320;2023-12-20T00:06:27;95307.59;;;-0.67;88.27
38400;BME280;24180;42.676;23.320;2023-12-20T00:08:52;95307.63;;;-0.62;88.08
38400;BME280;24180;42.676;23.320;2023-12-20T00:11:18;95311.19;;;-0.63;87.53
38400;BME280;24180;42.676;23.320;2023-12-20T00:13:44;95306.69;;;-0.51;88.22
38400;BME280;24180;42.676;23.320;2023-12-20T00:16:09;95293.41;;;-0.58;88.64
38400;BME280;24180;42.676;23.320;2023-12-20T00:18:35;95290.44;;;-0.82;90.18
38400;BME280;24180;42.676;23.320;2023-12-20T00:21:00;95304.19;;;-0.78;90.57
38400;BME280;24180;42.676;23.320;2023-12-20T00:23:26;95292.78;;;-0.75;89.33
38400;BME280;24180;42.676;23.320;2023-12-20T00:25:51;95288.88;;;-0.88;90.74
38400;BME280;24180;42.676;23.320;2023-12-20T00:28:17;95284.56;;;-0.87;91.45
38400;BME280;24180;42.676;23.320;2023-12-20T00:30:42;95279.53;;;-0.82;91.08
38400;BME280;24180;42.676;23.320;2023-12-20T00:33:08;95274.75;;;-0.74;90.79
38400;BME280;24180;42.676;23.320;2023-12-20T00:35:33;95259.94;;;-0.87;90.43
38400;BME280;24180;42.676;23.320;2023-12-20T00:37:59;95278.22;;;-0.85;90.71
38400;BME280;24180;42.676;23.320;2023-12-20T00:40:24;95259.41;;;-0.89;91.24
38400;BME280;24180;42.676;23.320;2023-12-20T00:42:50;95264.50;;;-0.89;91.43
38400;BME280;24180;42.676;23.320;2023-12-20T00:45:15;95263.97;;;-0.91;91.29
38400;BME280;24180;42.676;23.320;2023-12-20T00:47:41;95263.19;;;-0.91;90.88
38400;BME280;24180;42.676;23.320;2023-12-20T00:50:07;95243.13;;;-0.93;89.90
38400;BME280;24180;42.676;23.320;2023-12-20T00:52:32;95261.75;;;-0.82;89.75
38400;BME280;24180;42.676;23.320;2023-12-20T00:54:58;95252.59;;;-0.83;89.48
38400;BME280;24180;42.676;23.320;2023-12-20T00:57:23;95218.91;;;-1.06;89.43
38400;BME280;24180;42.676;23.320;2023-12-20T00:59:49;95248.78;;;-0.86;89.15
38400;BME280;24180;42.676;23.320;2023-12-20T01:02:14;95254.84;;;-0.87;90.22
38400;BME280;24180;42.676;23.320;2023-12-20T01:04:40;95245.72;;;-0.88;89.02
38400;BME280;24180;42.676;23.320;2023-12-20T01:07:05;95212.44;;;-0.91;88.10
38400;BME280;24180;42.676;23.320;2023-12-20T01:09:31;95240.28;;;-0.69;86.91
38400;BME280;24180;42.676;23.320;2023-12-20T01:11:56;95235.13;;;-0.80;86.88
38400;BME280;24180;42.676;23.320;2023-12-20T01:14:21;95240.16;;;-0.85;87.16
38400;BME280;24180;42.676;23.320;2023-12-20T01:16:47;95238.03;;;-0.98;89.07
38400;BME280;24180;42.676;23.320;2023-12-20T01:19:13;95236.78;;;-0.96;89.19
38400;BME280;24180;42.676;23.320;2023-12-20T01:21:39;95234.75;;;-0.94;88.89
38400;BME280;24180;42.676;23.320;2023-12-20T01:24:05;95214.84;;;-1.07;88.85
38400;BME280;24180;42.676;23.320;2023-12-20T01:26:30;95201.81;;;-1.15;88.65
38400;BME280;24180;42.676;23.320;2023-12-20T01:28:55;95218.41;;;-1.08;88.88
38400;BME280;24180;42.676;23.320;2023-12-20T01:31:21;95211.28;;;-1.06;88.37
38400;BME280;24180;42.676;23.320;2023-12-20T01:33:47;95212.84;;;-1.05;88.84
38400;BME280;24180;42.676;23.320;2023-12-20T01:36:12;95203.41;;;-1.09;88.06
38400;BME280;24180;42.676;23.320;2023-12-20T01:38:38;95212.56;;;-1.08;88.69
38400;BME280;24180;42.676;23.320;2023-12-20T01:41:03;95197.03;;;-1.12;89.20
38400;BME280;24180;42.676;23.320;2023-12-20T01:43:30;95198.97;;;-0.92;87.87
38400;BME280;24180;42.676;23.320;2023-12-20T01:45:58;95185.13;;;-1.11;87.71
38400;BME280;24180;42.676;23.320;2023-12-20T01:48:25;95188.81;;;-1.24;89.53
38400;BME280;24180;42.676;23.320;2023-12-20T01:50:51;95176.81;;;-1.34;90.11
38400;BME280;24180;42.676;23.320;2023-12-20T01:53:19;95180.91;;;-1.28;89.38
38400;BME280;24180;42.676;23.320;2023-12-20T01:55:46;95168.16;;;-1.38;89.74
38400;BME280;24180;42.676;23.320;2023-12-20T01:58:15;95173.00;;;-1.31;89.85
38400;BME280;24180;42.676;23.320;2023-12-20T02:00:42;95178.97;;;-1.21;89.46
38400;BME280;24180;42.676;23.320;2023-12-20T02:03:07;95179.19;;;-1.22;89.53
38400;BME280;24180;42.676;23.320;2023-12-20T02:05:35;95174.44;;;-1.13;89.16
38400;BME280;24180;42.676;23.320;2023-12-20T02:08:00;95156.16;;;-1.15;88.31
38400;BME280;24180;42.676;23.320;2023-12-20T02:10:26;95167.84;;;-1.14;87.10
38400;BME280;24180;42.676;23.320;2023-12-20T02:12:52;95156.56;;;-1.29;88.73
38400;BME280;24180;42.676;23.320;2023-12-20T02:15:18;95167.19;;;-1.32;87.48
38400;BME280;24180;42.676;23.320;2023-12-20T02:17:44;95159.16;;;-1.19;87.70
38400;BME280;24180;42.676;23.320;2023-12-20T02:20:10;95154.06;;;-1.24;88.27
38400;BME280;24180;42.676;23.320;2023-12-20T02:22:36;95152.72;;;-1.31;88.54
38400;BME280;24180;42.676;23.320;2023-12-20T02:25:01;95144.88;;;-1.30;88.54
38400;BME280;24180;42.676;23.320;2023-12-20T02:27:27;95145.13;;;-1.31;87.77
38400;BME280;24180;42.676;23.320;2023-12-20T02:29:54;95144.97;;;-1.20;87.17
38400;BME280;24180;42.676;23.320;2023-12-20T02:32:20;95134.88;;;-1.47;89.49
38400;BME280;24180;42.676;23.320;2023-12-20T02:34:48;95128.53;;;-1.44;89.52
38400;BME280;24180;42.676;23.320;2023-12-20T02:37:14;95143.03;;;-1.39;88.73
38400;BME280;24180;42.676;23.320;2023-12-20T02:39:39;95134.19;;;-1.37;89.58
38400;BME280;24180;42.676;23.320;2023-12-20T02:42:04;95129.09;;;-1.37;88.35
38400;BME280;24180;42.676;23.320;2023-12-20T02:44:30;95113.84;;;-1.42;88.61
38400;BME280;24180;42.676;23.320;2023-12-20T02:46:55;95121.19;;;-1.41;89.42
38400;BME280;24180;42.676;23.320;2023-12-20T02:52:05;95130.34;;;-1.39;89.19
38400;BME280;24180;42.676;23.320;2023-12-20T02:54:30;95126.13;;;-1.29;86.36
38400;BME280;24180;42.676;23.320;2023-12-20T02:56:56;95127.56;;;-1.38;86.10
38400;BME280;24180;42.676;23.320;2023-12-20T02:59:21;95130.56;;;-1.46;86.81
38400;BME280;24180;42.676;23.320;2023-12-20T03:01:47;95130.75;;;-1.53;86.33
38400;BME280;24180;42.676;23.320;2023-12-20T03:04:12;95125.63;;;-1.58;87.56
38400;BME280;24180;42.676;23.320;2023-12-20T03:06:38;95121.47;;;-1.69;86.88
38400;BME280;24180;42.676;23.320;2023-12-20T03:09:04;95125.53;;;-1.68;87.07
38400;BME280;24180;42.676;23.320;2023-12-20T03:11:30;95130.63;;;-1.68;87.07
38400;BME280;24180;42.676;23.320;2023-12-20T03:13:56;95130.56;;;-1.73;88.20
38400;BME280;24180;42.676;23.320;2023-12-20T03:16:22;95127.03;;;-1.72;87.80
38400;BME280;24180;42.676;23.320;2023-12-20T03:18:47;95121.91;;;-1.77;88.21
38400;BME280;24180;42.676;23.320;2023-12-20T03:21:12;95110.44;;;-1.85;87.25
38400;BME280;24180;42.676;23.320;2023-12-20T03:23:38;95115.00;;;-1.82;87.22
38400;BME280;24180;42.676;23.320;2023-12-20T03:26:06;95119.03;;;-1.86;87.80
38400;BME280;24180;42.676;23.320;2023-12-20T03:28:32;95109.66;;;-1.85;86.83
38400;BME280;24180;42.676;23.320;2023-12-20T03:30:57;95088.44;;;-2.06;87.31
38400;BME280;24180;42.676;23.320;2023-12-20T03:33:23;95114.41;;;-1.94;87.04
38400;BME280;24180;42.676;23.320;2023-12-20T03:35:48;95106.25;;;-1.96;87.25
38400;BME280;24180;42.676;23.320;2023-12-20T03:38:14;95116.94;;;-1.94;86.78
38400;BME280;24180;42.676;23.320;2023-12-20T03:40:39;95083.28;;;-2.12;87.51
38400;BME280;24180;42.676;23.320;2023-12-20T03:43:05;95112.91;;;-1.90;87.64
38400;BME280;24180;42.676;23.320;2023-12-20T03:45:30;95111.88;;;-1.94;86.64
38400;BME280;24180;42.676;23.320;2023-12-20T03:47:56;95101.91;;;-2.01;87.34
38400;BME280;24180;42.676;23.320;2023-12-20T03:50:22;95111.56;;;-1.98;87.53
38400;BME280;24180;42.676;23.320;2023-12-20T03:52:48;95090.22;;;-2.02;86.17
38400;BME280;24180;42.676;23.320;2023-12-20T03:55:13;95101.09;;;-2.06;87.82
38400;BME280;24180;42.676;23.320;2023-12-20T03:57:39;95104.63;;;-2.07;86.95
38400;BME280;24180;42.676;23.320;2023-12-20T04:00:06;95100.66;;;-1.98;86.75
38400;BME280;24180;42.676;23.320;2023-12-20T04:02:36;95101.84;;;-2.06;86.80
38400;BME280;24180;42.676;23.320;2023-12-20T04:05:01;95088.91;;;-2.09;87.93
38400;BME280;24180;42.676;23.320;2023-12-20T04:07:27;95080.34;;;-2.03;86.54
38400;BME280;24180;42.676;23.320;2023-12-20T04:09:52;95094.78;;;-2.04;85.26
38400;BME280;24180;42.676;23.320;2023-12-20T04:12:18;95087.84;;;-2.14;85.20
38400;BME280;24180;42.676;23.320;2023-12-20T04:14:43;95081.69;;;-2.23;87.08
38400;BME280;24180;42.676;23.320;2023-12-20T04:17:09;95049.13;;;-2.36;87.90
38400;BME280;24180;42.676;23.320;2023-12-20T04:19:34;95068.41;;;-2.30;87.69
38400;BME280;24180;42.676;23.320;2023-12-20T04:21:59;95049.06;;;-2.41;87.42
38400;BME280;24180;42.676;23.320;2023-12-20T04:24:25;95071.31;;;-2.43;87.06
38400;BME280;24180;42.676;23.320;2023-12-20T04:26:50;95067.84;;;-2.37;87.46
38400;BME280;24180;42.676;23.320;2023-12-20T04:29:16;95066.34;;;-2.33;87.85
38400;BME280;24180;42.676;23.320;2023-12-20T04:31:42;95064.31;;;-2.36;88.60
38400;BME280;24180;42.676;23.320;2023-12-20T04:34:07;95052.28;;;-2.46;87.67
38400;BME280;24180;42.676;23.320;2023-12-20T04:36:33;95052.88;;;-2.39;88.41
38400;BME280;24180;42.676;23.320;2023-12-20T04:38:58;95046.47;;;-2.46;88.01
38400;BME280;24180;42.676;23.320;2023-12-20T04:41:25;95053.94;;;-2.35;87.73
38400;BME280;24180;42.676;23.320;2023-12-20T04:43:50;95060.00;;;-2.36;86.34
38400;BME280;24180;42.676;23.320;2023-12-20T04:46:16;95054.69;;;-2.34;86.87
38400;BME280;24180;42.676;23.320;2023-12-20T04:48:41;95065.59;;;-2.34;85.74
38400;BME280;24180;42.676;23.320;2023-12-20T04:51:07;95045.56;;;-2.35;86.75
38400;BME280;24180;42.676;23.320;2023-12-20T04:53:32;95046.72;;;-2.48;86.95
38400;BME280;24180;42.676;23.320;2023-12-20T04:55:58;95056.13;;;-2.43;86.52
38400;BME280;24180;42.676;23.320;2023-12-20T04:58:23;95052.06;;;-2.44;87.15
38400;BME280;24180;42.676;23.320;2023-12-20T05:00:49;95049.94;;;-2.52;87.02
38400;BME280;24180;42.676;23.320;2023-12-20T05:03:14;95046.13;;;-2.55;87.33
38400;BME280;24180;42.676;23.320;2023-12-20T05:05:40;95050.41;;;-2.55;86.53
38400;BME280;24180;42.676;23.320;2023-12-20T05:08:05;95048.88;;;-2.57;87.56
38400;BME280;24180;42.676;23.320;2023-12-20T05:10:31;95038.22;;;-2.59;87.49
38400;BME280;24180;42.676;23.320;2023-12-20T05:12:56;95038.88;;;-2.68;87.59
38400;BME280;24180;42.676;23.320;2023-12-20T05:15:22;95047.06;;;-2.83;87.90
38400;BME280;24180;42.676;23.320;2023-12-20T05:17:47;95040.00;;;-2.81;87.67
38400;BME280;24180;42.676;23.320;2023-12-20T05:20:13;95028.28;;;-2.87;87.58
38400;BME280;24180;42.676;23.320;2023-12-20T05:22:38;95044.16;;;-2.92;87.94
38400;BME280;24180;42.676;23.320;2023-12-20T05:25:04;95033.84;;;-3.07;88.43
38400;BME280;24180;42.676;23.320;2023-12-20T05:27:30;95011.84;;;-3.29;88.12
38400;BME280;24180;42.676;23.320;2023-12-20T05:29:55;95027.81;;;-3.06;88.65
38400;BME280;24180;42.676;23.320;2023-12-20T05:32:23;95026.97;;;-3.12;88.92
38400;BME280;24180;42.676;23.320;2023-12-20T05:34:49;95019.97;;;-3.05;89.15
38400;BME280;24180;42.676;23.320;2023-12-20T05:37:14;95013.63;;;-3.07;89.36
38400;BME280;24180;42.676;23.320;2023-12-20T05:39:40;95014.91;;;-3.05;88.43
38400;BME280;24180;42.676;23.320;2023-12-20T05:42:05;95009.09;;;-3.05;88.76
38400;BME280;24180;42.676;23.320;2023-12-20T05:44:31;95012.47;;;-2.99;89.46
38400;BME280;24180;42.676;23.320;2023-12-20T05:46:56;95020.53;;;-3.02;90.31
38400;BME280;24180;42.676;23.320;2023-12-20T05:49:21;95020.56;;;-2.97;89.82
38400;BME280;24180;42.676;23.320;2023-12-20T05:51:47;95007.88;;;-3.02;89.78
38400;BME280;24180;42.676;23.320;2023-12-20T05:54:12;95011.91;;;-3.01;89.54
38400;BME280;24180;42.676;23.320;2023-12-20T05:56:38;95015.28;;;-2.96;89.62
38400;BME280;24180;42.676;23.320;2023-12-20T05:59:04;95009.03;;;-2.88;90.32
38400;BME280;24180;42.676;23.320;2023-12-20T06:01:29;95006.69;;;-2.95;89.52
38400;BME280;24180;42.676;23.320;2023-12-20T06:03:55;95009.22;;;-2.95;91.77
38400;BME280;24180;42.676;23.320;2023-12-20T06:06:20;94995.72;;;-3.00;91.39
38400;BME280;24180;42.676;23.320;2023-12-20T06:08:45;94997.78;;;-2.97;91.56
38400;BME280;24180;42.676;23.320;2023-12-20T06:11:11;95002.94;;;-2.92;92.06
38400;BME280;24180;42.676;23.320;2023-12-20T06:13:36;94999.97;;;-2.84;92.11
38400;BME280;24180;42.676;23.320;2023-12-20T06:16:04;94992.91;;;-2.82;90.61
38400;BME280;24180;42.676;23.320;2023-12-20T06:18:30;95007.69;;;-2.74;90.13
38400;BME280;24180;42.676;23.320;2023-12-20T06:20:55;95004.09;;;-2.78;91.39
38400;BME280;24180;42.676;23.320;2023-12-20T06:23:21;95003.91;;;-2.71;91.06
38400;BME280;24180;42.676;23.320;2023-12-20T06:25:46;95014.03;;;-2.71;91.17
38400;BME280;24180;42.676;23.320;2023-12-20T06:28:12;95005.97;;;-2.68;91.06
38400;BME280;24180;42.676;23.320;2023-12-20T06:30:39;95007.81;;;-2.64;90.88
38400;BME280;24180;42.676;23.320;2023-12-20T06:33:05;95008.50;;;-2.68;89.77
38400;BME280;24180;42.676;23.320;2023-12-20T06:35:32;95012.81;;;-2.69;90.84
38400;BME280;24180;42.676;23.320;2023-12-20T06:37:58;95006.69;;;-2.73;92.11
38400;BME280;24180;42.676;23.320;2023-12-20T06:40:23;95010.91;;;-2.78;92.73
38400;BME280;24180;42.676;23.320;2023-12-20T06:42:48;95000.03;;;-2.79;91.73
38400;BME280;24180;42.676;23.320;2023-12-20T06:45:14;94993.56;;;-2.70;92.96
38400;BME280;24180;42.676;23.320;2023-12-20T06:47:40;94984.97;;;-2.69;91.70
38400;BME280;24180;42.676;23.320;2023-12-20T06:50:05;94999.38;;;-2.47;90.98
38400;BME280;24180;42.676;23.320;2023-12-20T06:52:31;94982.00;;;-2.39;91.51
38400;BME280;24180;42.676;23.320;2023-12-20T06:54:56;94971.66;;;-2.32;91.40
38400;BME280;24180;42.676;23.320;2023-12-20T06:57:22;94982.69;;;-2.16;89.05
38400;BME280;24180;42.676;23.320;2023-12-20T06:59:48;94975.56;;;-2.19;89.72
38400;BME280;24180;42.676;23.320;2023-12-20T07:02:14;94979.69;;;-2.13;90.33
38400;BME280;24180;42.676;23.320;2023-12-20T07:04:40;94976.34;;;-2.19;89.28
38400;BME280;24180;42.676;23.320;2023-12-20T07:07:06;94973.59;;;-2.12;89.06
38400;BME280;24180;42.676;23.320;2023-12-20T07:09:32;94971.25;;;-2.19;90.47
38400;BME280;24180;42.676;23.320;2023-12-20T07:11:58;94977.38;;;-2.15;90.27
38400;BME280;24180;42.676;23.320;2023-12-20T07:14:23;94974.91;;;-2.09;89.96
38400;BME280;24180;42.676;23.320;2023-12-20T07:16:49;94963.09;;;-1.94;89.22
38400;BME280;24180;42.676;23.320;2023-12-20T07:19:14;94950.22;;;-1.87;88.44
38400;BME280;24180;42.676;23.320;2023-12-20T07:21:40;94968.09;;;-1.67;87.80
38400;BME280;24180;42.676;23.320;2023-12-20T07:24:05;94942.41;;;-1.80;87.54
38400;BME280;24180;42.676;23.320;2023-12-20T07:26:31;94948.50;;;-1.76;87.81
38400;BME280;24180;42.676;23.320;2023-12-20T07:28:56;94957.25;;;-1.57;87.46
38400;BME280;24180;42.676;23.320;2023-12-20T07:31:23;94948.38;;;-1.59;87.47
38400;BME280;24180;42.676;23.320;2023-12-20T07:33:49;94955.41;;;-1.72;87.31
38400;BME280;24180;42.676;23.320;2023-12-20T07:36:15;94955.41;;;-1.67;87.31
38400;BME280;24180;42.676;23.320;2023-12-20T07:38:40;94957.25;;;-1.62;87.90
38400;BME280;24180;42.676;23.320;2023-12-20T07:41:09;94953.28;;;-1.43;86.71
38400;BME280;24180;42.676;23.320;2023-12-20T07:43:35;94957.91;;;-1.29;87.57
38400;BME280;24180;42.676;23.320;2023-12-20T07:46:07;94941.41;;;-1.37;85.82
38400;BME280;24180;42.676;23.320;2023-12-20T07:48:36;94959.47;;;-1.23;85.65
38400;BME280;24180;42.676;23.320;2023-12-20T07:51:02;94948.03;;;-1.31;86.27
38400;BME280;24180;42.676;23.320;2023-12-20T07:53:28;94953.16;;;-1.21;85.51
38400;BME280;24180;42.676;23.320;2023-12-20T07:55:54;94942.47;;;-1.23;86.86
38400;BME280;24180;42.676;23.320;2023-12-20T07:58:20;94940.47;;;-1.21;85.75
38400;BME280;24180;42.676;23.320;2023-12-20T08:00:46;94934.91;;;-1.18;85.82
38400;BME280;24180;42.676;23.320;2023-12-20T08:03:11;94935.91;;;-1.13;85.78
38400;BME280;24180;42.676;23.320;2023-12-20T08:05:38;94945.88;;;-0.97;85.58
38400;BME280;24180;42.676;23.320;2023-12-20T08:08:05;94951.22;;;-0.93;85.63
38400;BME280;24180;42.676;23.320;2023-12-20T08:10:31;94949.97;;;-0.90;84.51
38400;BME280;24180;42.676;23.320;2023-12-20T08:12:57;94940.09;;;-0.77;84.46
38400;BME280;24180;42.676;23.320;2023-12-20T08:15:22;94922.84;;;-0.64;84.39
38400;BME280;24180;42.676;23.320;2023-12-20T08:17:49;94931.28;;;-0.54;83.40
38400;BME280;24180;42.676;23.320;2023-12-20T08:20:16;94935.63;;;-0.34;83.06
38400;BME280;24180;42.676;23.320;2023-12-20T08:22:42;94935.38;;;-0.22;82.99
38400;BME280;24180;42.676;23.320;2023-12-20T08:25:08;94932.06;;;-0.17;81.50
38400;BME280;24180;42.676;23.320;2023-12-20T08:27:36;94923.16;;;-0.10;81.28
38400;BME280;24180;42.676;23.320;2023-12-20T08:30:02;94930.53;;;0.17;81.04
38400;BME280;24180;42.676;23.320;2023-12-20T08:32:28;94936.88;;;0.30;81.13
38400;BME280;24180;42.676;23.320;2023-12-20T08:34:53;94926.91;;;0.44;79.62
38400;BME280;24180;42.676;23.320;2023-12-20T08:37:19;94918.81;;;0.27;79.87
38400;BME280;24180;42.676;23.320;2023-12-20T08:39:44;94912.97;;;0.21;81.01
38400;BME280;24180;42.676;23.320;2023-12-20T08:42:10;94900.06;;;-0.03;80.70
38400;BME280;24180;42.676;23.320;2023-12-20T08:44:35;94910.97;;;-0.03;81.05
38400;BME280;24180;42.676;23.320;2023-12-20T08:47:01;94896.47;;;-0.07;81.76
38400;BME280;24180;42.676;23.320;2023-12-20T08:49:26;94895.72;;;-0.13;81.93
38400;BME280;24180;42.676;23.320;2023-12-20T08:51:53;94891.91;;;-0.05;81.57
38400;BME280;24180;42.676;23.320;2023-12-20T08:54:18;94900.03;;;0.07;80.54
38400;BME280;24180;42.676;23.320;2023-12-20T08:56:45;94899.25;;;0.12;80.68
38400;BME280;24180;42.676;23.320;2023-12-20T08:59:11;94900.22;;;0.31;80.12
38400;BME280;24180;42.676;23.320;2023-12-20T09:01:37;94879.13;;;0.36;79.65
38400;BME280;24180;42.676;23.320;2023-12-20T09:04:02;94881.34;;;0.58;78.96
38400;BME280;24180;42.676;23.320;2023-12-20T09:06:28;94873.16;;;0.66;78.36
38400;BME280;24180;42.676;23.320;2023-12-20T09:08:53;94862.97;;;0.71;78.38
38400;BME280;24180;42.676;23.320;2023-12-20T09:11:19;94858.63;;;0.77;78.45
38400;BME280;24180;42.676;23.320;2023-12-20T09:13:44;94854.56;;;0.76;78.31
38400;BME280;24180;42.676;23.320;2023-12-20T09:16:10;94834.09;;;0.96;77.83
38400;BME280;24180;42.676;23.320;2023-12-20T09:18:35;94813.53;;;0.82;78.11
38400;BME280;24180;42.676;23.320;2023-12-20T09:21:01;94828.03;;;0.87;77.91
38400;BME280;24180;42.676;23.320;2023-12-20T09:23:27;94820.88;;;0.94;78.12
38400;BME280;24180;42.676;23.320;2023-12-20T09:25:53;94803.56;;;0.96;77.83
38400;BME280;24180;42.676;23.320;2023-12-20T09:28:18;94806.13;;;0.91;78.00
38400;BME280;24180;42.676;23.320;2023-12-20T09:30:44;94798.50;;;0.86;78.40
38400;BME280;24180;42.676;23.320;2023-12-20T09:33:11;94806.31;;;1.00;78.07
38400;BME280;24180;42.676;23.320;2023-12-20T09:35:36;94794.59;;;0.99;77.94
38400;BME280;24180;42.676;23.320;2023-12-20T09:38:02;94790.22;;;1.09;78.00
38400;BME280;24180;42.676;23.320;2023-12-20T09:40:27;94785.06;;;1.20;76.92
38400;BME280;24180;42.676;23.320;2023-12-20T09:42:59;94784.00;;;1.26;77.15
38400;BME280;24180;42.676;23.320;2023-12-20T09:45:26;94773.56;;;1.22;77.30
38400;BME280;24180;42.676;23.320;2023-12-20T09:47:56;94778.81;;;1.36;76.94
38400;BME280;24180;42.676;23.320;2023-12-20T09:50:23;94761.56;;;1.28;77.39
38400;BME280;24180;42.676;23.320;2023-12-20T09:52:52;94748.34;;;1.21;77.59
38400;BME280;24180;42.676;23.320;2023-12-20T09:55:19;94765.22;;;1.46;77.55
38400;BME280;24180;42.676;23.320;2023-12-20T09:57:46;94751.38;;;1.57;76.32
38400;BME280;24180;42.676;23.320;2023-12-20T10:00:12;94756.66;;;1.90;75.96
38400;BME280;24180;42.676;23.320;2023-12-20T10:02:50;94742.69;;;2.30;73.68
38400;BME280;24180;42.676;23.320;2023-12-20T10:05:17;94766.38;;;2.73;72.93
38400;BME280;24180;42.676;23.320;2023-12-20T10:07:48;94749.88;;;3.36;69.76
38400;BME280;24180;42.676;23.320;2023-12-20T10:10:14;94751.38;;;3.97;67.28
38400;BME280;24180;42.676;23.320;2023-12-20T10:12:40;94743.06;;;4.56;65.33
38400;BME280;24180;42.676;23.320;2023-12-20T10:15:06;94742.19;;;4.97;64.00
38400;BME280;24180;42.676;23.320;2023-12-20T10:17:31;94739.19;;;5.40;61.82
38400;BME280;24180;42.676;23.320;2023-12-20T10:19:58;94725.88;;;5.69;61.75
38400;BME280;24180;42.676;23.320;2023-12-20T10:22:23;94720.00;;;6.08;59.97
38400;BME280;24180;42.676;23.320;2023-12-20T10:24:49;94723.41;;;6.52;58.09
38400;BME280;24180;42.676;23.320;2023-12-20T10:27:18;94712.84;;;6.88;56.91
38400;BME280;24180;42.676;23.320;2023-12-20T10:29:44;94711.94;;;6.84;56.45
38400;BME280;24180;42.676;23.320;2023-12-20T10:32:24;94701.06;;;6.87;56.13
38400;BME280;24180;42.676;23.320;2023-12-20T10:34:49;94700.75;;;6.89;55.70
38400;BME280;24180;42.676;23.320;2023-12-20T10:37:15;94690.94;;;6.91;55.47
38400;BME280;24180;42.676;23.320;2023-12-20T10:39:42;94696.66;;;6.79;55.83
38400;BME280;24180;42.676;23.320;2023-12-20T10:42:10;94681.69;;;6.98;55.81
38400;BME280;24180;42.676;23.320;2023-12-20T10:44:36;94685.75;;;7.17;55.56
38400;BME280;24180;42.676;23.320;2023-12-20T10:47:03;94680.97;;;7.45;54.20
38400;BME280;24180;42.676;23.320;2023-12-20T10:49:30;94681.72;;;7.45;55.13
38400;BME280;24180;42.676;23.320;2023-12-20T10:51:57;94678.31;;;7.24;54.15
38400;BME280;24180;42.676;23.320;2023-12-20T10:54:25;94666.16;;;6.78;56.49
38400;BME280;24180;42.676;23.320;2023-12-20T10:56:51;94675.19;;;6.32;57.41
38400;BME280;24180;42.676;23.320;2023-12-20T10:59:19;94641.91;;;5.52;59.83
38400;BME280;24180;42.676;23.320;2023-12-20T11:01:47;94658.09;;;5.21;60.97
38400;BME280;24180;42.676;23.320;2023-12-20T11:04:18;94649.16;;;4.65;63.28
38400;BME280;24180;42.676;23.320;2023-12-20T11:06:51;94639.06;;;4.24;65.38
38400;BME280;24180;42.676;23.320;2023-12-20T11:09:26;94619.91;;;3.71;66.33
38400;BME280;24180;42.676;23.320;2023-12-20T11:12:10;94646.53;;;3.56;68.52
38400;BME280;24180;42.676;23.320;2023-12-20T11:14:52;94635.88;;;3.08;70.36
38400;BME280;24180;42.676;23.320;2023-12-20T11:17:18;94635.06;;;2.79;71.79
38400;BME280;24180;42.676;23.320;2023-12-20T11:22:24;94623.34;;;2.27;74.62
38400;BME280;24180;42.676;23.320;2023-12-20T11:24:51;94609.50;;;2.14;74.27
38400;BME280;24180;42.676;23.320;2023-12-20T11:27:20;94612.16;;;2.04;75.98
38400;BME280;24180;42.676;23.320;2023-12-20T11:29:52;94602.19;;;1.89;76.05
38400;BME280;24180;42.676;23.320;2023-12-20T11:34:58;94581.31;;;1.62;77.32
38400;BME280;24180;42.676;23.320;2023-12-20T11:37:36;94574.22;;;1.59;77.73
38400;BME280;24180;42.676;23.320;2023-12-20T11:40:06;94571.63;;;1.65;77.88
38400;BME280;24180;42.676;23.320;2023-12-20T11:42:33;94553.38;;;1.57;77.50
38400;BME280;24180;42.676;23.320;2023-12-20T11:45:03;94563.78;;;1.80;77.31
38400;BME280;24180;42.676;23.320;2023-12-20T11:47:30;94561.59;;;1.92;76.57
38400;BME280;24180;42.676;23.320;2023-12-20T11:49:56;94566.59;;;2.16;76.05
38400;BME280;24180;42.676;23.320;2023-12-20T11:52:22;94547.56;;;2.27;75.63
38400;BME280;24180;42.676;23.320;2023-12-20T11:54:47;94546.59;;;2.23;74.69
38400;BME280;24180;42.676;23.320;2023-12-20T11:57:13;94548.66;;;2.40;74.78
38400;BME280;24180;42.676;23.320;2023-12-20T11:59:39;94522.28;;;2.45;73.77
38400;BME280;24180;42.676;23.320;2023-12-20T12:02:05;94511.69;;;2.51;74.15
38400;BME280;24180;42.676;23.320;2023-12-20T12:04:31;94514.56;;;2.64;74.11
38400;BME280;24180;42.676;23.320;2023-12-20T12:06:56;94520.25;;;2.74;72.61
38400;BME280;24180;42.676;23.320;2023-12-20T12:09:22;94511.84;;;2.88;73.45
38400;BME280;24180;42.676;23.320;2023-12-20T12:11:47;94516.97;;;3.01;72.77
38400;BME280;24180;42.676;23.320;2023-12-20T12:14:14;94511.66;;;3.12;72.46
38400;BME280;24180;42.676;23.320;2023-12-20T12:16:41;94505.69;;;3.02;72.52
38400;BME280;24180;42.676;23.320;2023-12-20T12:19:07;94497.38;;;3.11;73.21
38400;BME280;24180;42.676;23.320;2023-12-20T12:21:44;94485.09;;;3.13;73.11
38400;BME280;24180;42.676;23.320;2023-12-20T12:24:10;94491.31;;;3.20;73.02
38400;BME280;24180;42.676;23.320;2023-12-20T12:26:36;94492.81;;;3.21;72.11
38400;BME280;24180;42.676;23.320;2023-12-20T12:29:01;94479.03;;;3.22;73.29
38400;BME280;24180;42.676;23.320;2023-12-20T12:31:27;94481.09;;;3.20;72.42
38400;BME280;24180;42.676;23.320;2023-12-20T12:33:52;94485.44;;;3.20;73.46
38400;BME280;24180;42.676;23.320;2023-12-20T12:36:18;94487.72;;;3.08;74.33
38400;BME280;24180;42.676;23.320;2023-12-20T12:38:43;94489.59;;;3.16;73.42
38400;BME280;24180;42.676;23.320;2023-12-20T12:41:09;94480.25;;;2.97;73.25
38400;BME280;24180;42.676;23.320;2023-12-20T12:43:35;94482.22;;;2.87;75.17
38400;BME280;24180;42.676;23.320;2023-12-20T12:46:01;94483.28;;;2.99;73.90
38400;BME280;24180;42.676;23.320;2023-12-20T12:48:27;94466.16;;;2.86;74.39
38400;BME280;24180;42.676;23.320;2023-12-20T12:50:53;94476.09;;;2.74;74.52
38400;BME280;24180;42.676;23.320;2023-12-20T12:53:19;94458.41;;;2.64;75.21
38400;BME280;24180;42.676;23.320;2023-12-20T12:55:45;94476.38;;;2.72;74.84